Decoded Metar for LRCL (CLUJ-NAPOCA in ROMANIA) (IATA:CLJ) | Meteo·Mobile Aviation Weather
aviador You're here:

LRCL Decoded Metar

CLUJ-NAPOCA in ROMANIA
Report Time2019-03-22 13:30:00
UTC Time2019-03-22 13:58:29
Flight Rules vfr VFR
Wind310° at 11 kt
W.Decomp.*RWY 26: 7.5 kt HW 8.0 kt RCW
W.Rank310° ranks 15
Current wind is above 310° avg. (7.8)
Visibility9999 m
Phenomena:N/A
Clouds:N/A
Expected CloudBase > 5,600 ft AGL from Temp-Dew spread
CeilingNone
Temp14°C (ISA +2)
Dew Point00°C (39% RH)
AAT8.1°C
QNH1028 hPa
Density Alt1,138 ft
Elevation1,355 ft
Report Wrong Elevation
Raw Report
METAR LRCL 221330Z 31011KT 270V340 CAVOK 14/00 Q1028=

Extra information for LRCL:More info

Metar Taf Metar & Taf Last 4 Metars F.Rules Stats Wind Profile Meteogram Temp Stats Airport Information Weather charts Add Link Nearby VenuesMetar ALERT Operation Metar Decoded Social comments